createdAt,value
2023-02-19T00:00:05.330Z,2.45
2023-02-19T00:00:36.633Z,2.45
2023-02-19T00:01:01.103Z,2.45
2023-02-19T00:01:51.834Z,2.45
2023-02-19T00:02:15.424Z,2.46
2023-02-19T00:02:38.863Z,2.47
2023-02-19T00:03:02.625Z,2.47
2023-02-19T00:03:27.831Z,2.48
2023-02-19T00:04:39.786Z,2.48
2023-02-19T00:05:03.021Z,2.48
2023-02-19T00:05:26.469Z,2.47
2023-02-19T00:05:49.583Z,2.47
2023-02-19T00:06:12.597Z,2.46
2023-02-19T00:06:35.799Z,2.45
2023-02-19T00:07:00.464Z,2.44
2023-02-19T00:07:23.592Z,2.43
2023-02-19T00:07:51.598Z,2.42
2023-02-19T00:08:14.717Z,2.41
2023-02-19T00:08:39.159Z,2.39
2023-02-19T00:09:02.379Z,2.39
2023-02-19T00:09:26.104Z,2.38
2023-02-19T00:09:49.086Z,2.37
2023-02-19T00:10:12.027Z,2.36
2023-02-19T00:10:35.875Z,2.35
2023-02-19T00:11:02.727Z,2.34
2023-02-19T00:11:27.509Z,2.34
2023-02-19T00:11:50.840Z,2.33
2023-02-19T00:12:13.735Z,2.33
2023-02-19T00:12:36.844Z,2.33
2023-02-19T00:13:01.896Z,2.33
2023-02-19T00:13:28.004Z,2.34
2023-02-19T00:13:53.552Z,2.35
2023-02-19T00:14:17.705Z,2.35
2023-02-19T00:14:40.696Z,2.36
2023-02-19T00:15:04.114Z,2.37
2023-02-19T00:15:27.367Z,2.37
2023-02-19T00:15:50.554Z,2.39
2023-02-19T00:16:40.402Z,2.39
2023-02-19T00:17:07.151Z,2.39
2023-02-19T00:17:33.847Z,2.38
2023-02-19T00:17:56.762Z,2.37
2023-02-19T00:18:23.037Z,2.36
2023-02-19T00:18:47.585Z,2.36
2023-02-19T00:19:12.872Z,2.35
2023-02-19T00:19:36.266Z,2.33
2023-02-19T00:19:59.382Z,2.33
2023-02-19T00:20:22.599Z,2.32
2023-02-19T00:20:45.812Z,2.32
2023-02-19T00:21:09.693Z,2.31
2023-02-19T00:21:33.886Z,2.30
2023-02-19T00:21:57.301Z,2.30
2023-02-19T00:22:20.933Z,2.29
2023-02-19T00:22:44.143Z,2.29
2023-02-19T00:23:07.263Z,2.28
2023-02-19T00:23:30.787Z,2.29
2023-02-19T00:23:54.521Z,2.29
2023-02-19T00:24:17.738Z,2.29
2023-02-19T00:24:41.456Z,2.29
2023-02-19T00:25:05.506Z,2.30
2023-02-19T00:25:31.873Z,2.30
2023-02-19T00:25:55.427Z,2.32
2023-02-19T00:26:19.064Z,2.32
2023-02-19T00:26:43.588Z,2.34
2023-02-19T00:27:06.902Z,2.34
2023-02-19T00:27:31.333Z,2.35
2023-02-19T00:28:22.468Z,2.38
2023-02-19T00:28:45.994Z,2.39
2023-02-19T00:29:09.925Z,2.41
2023-02-19T00:29:33.059Z,2.41
2023-02-19T00:29:56.257Z,2.42
2023-02-19T00:30:20.315Z,2.41
2023-02-19T00:30:43.337Z,2.41
2023-02-19T00:31:09.839Z,2.41
2023-02-19T00:31:35.506Z,2.40
2023-02-19T00:31:58.690Z,2.40
2023-02-19T00:32:22.172Z,2.39
2023-02-19T00:32:49.918Z,2.38
2023-02-19T00:33:13.441Z,2.38
2023-02-19T00:33:36.661Z,2.38
2023-02-19T00:34:04.194Z,2.37
2023-02-19T00:34:27.591Z,2.36
2023-02-19T00:34:50.749Z,2.36
2023-02-19T00:35:17.117Z,2.35
2023-02-19T00:35:41.339Z,2.35
2023-02-19T00:36:05.060Z,2.34
2023-02-19T00:36:29.195Z,2.33
2023-02-19T00:36:55.481Z,2.33
2023-02-19T00:37:18.636Z,2.32
2023-02-19T00:37:41.711Z,2.32
2023-02-19T00:38:05.131Z,2.32
2023-02-19T00:38:28.862Z,2.32
2023-02-19T00:38:54.428Z,2.33
2023-02-19T00:39:18.759Z,2.33
2023-02-19T00:39:42.394Z,2.33
2023-02-19T00:40:05.820Z,2.35
2023-02-19T00:40:28.830Z,2.35
2023-02-19T00:40:59.102Z,2.37
2023-02-19T00:41:23.034Z,2.37
2023-02-19T00:41:46.630Z,2.39
2023-02-19T00:42:09.985Z,2.40
2023-02-19T00:42:34.219Z,2.41
2023-02-19T00:42:57.433Z,2.41
2023-02-19T00:43:23.919Z,2.42
2023-02-19T00:43:47.041Z,2.43
2023-02-19T00:44:10.969Z,2.41
2023-02-19T00:44:33.978Z,2.42
2023-02-19T00:44:56.995Z,2.41
2023-02-19T00:45:20.209Z,2.39
2023-02-19T00:45:43.444Z,2.39
2023-02-19T00:46:06.585Z,2.38
2023-02-19T00:46:32.480Z,2.37
2023-02-19T00:46:55.474Z,2.37
2023-02-19T00:47:18.540Z,2.36
2023-02-19T00:47:41.857Z,2.35
2023-02-19T00:48:05.176Z,2.35
2023-02-19T00:48:28.095Z,2.34
2023-02-19T00:48:52.729Z,2.34
2023-02-19T00:49:17.601Z,2.33
2023-02-19T00:49:40.806Z,2.33
2023-02-19T00:50:04.034Z,2.31
2023-02-19T00:50:27.237Z,2.32
2023-02-19T00:50:50.454Z,2.31
2023-02-19T00:51:14.077Z,2.31
2023-02-19T00:51:38.933Z,2.30
2023-02-19T00:52:04.384Z,2.30
2023-02-19T00:52:27.354Z,2.30
2023-02-19T00:52:52.464Z,2.31
2023-02-19T00:53:16.092Z,2.32
2023-02-19T00:53:39.522Z,2.32
2023-02-19T00:54:03.136Z,2.33
2023-02-19T00:54:26.153Z,2.34
2023-02-19T00:54:49.159Z,2.35
2023-02-19T00:55:12.377Z,2.37
2023-02-19T00:55:36.513Z,2.38
2023-02-19T00:56:00.039Z,2.40
2023-02-19T00:56:23.153Z,2.41
2023-02-19T00:56:46.288Z,2.42
2023-02-19T00:57:09.274Z,2.43
2023-02-19T00:57:33.923Z,2.44
2023-02-19T00:57:58.065Z,2.44
2023-02-19T00:58:21.078Z,2.43
2023-02-19T00:58:44.290Z,2.43
2023-02-19T00:59:07.835Z,2.43
2023-02-19T00:59:31.032Z,2.43
2023-02-19T00:59:54.246Z,2.42
2023-02-19T01:00:17.572Z,2.42
2023-02-19T01:00:40.781Z,2.40
2023-02-19T01:01:04.101Z,2.40
2023-02-19T01:01:27.541Z,2.39
2023-02-19T01:01:50.939Z,2.37
2023-02-19T01:02:14.256Z,2.36
2023-02-19T01:02:37.289Z,2.36
2023-02-19T01:03:00.599Z,2.35
2023-02-19T01:03:25.135Z,2.34
2023-02-19T01:03:48.457Z,2.33
2023-02-19T01:04:13.715Z,2.32
2023-02-19T01:04:37.879Z,2.32
2023-02-19T01:05:01.319Z,2.31
2023-02-19T01:05:24.695Z,2.31
2023-02-19T01:05:49.552Z,2.30
2023-02-19T01:06:14.599Z,2.30
2023-02-19T01:06:37.614Z,2.30
2023-02-19T01:07:00.831Z,2.30
2023-02-19T01:07:24.563Z,2.31
2023-02-19T01:07:47.676Z,2.32
2023-02-19T01:08:10.895Z,2.32
2023-02-19T01:08:34.647Z,2.33
2023-02-19T01:08:59.164Z,2.34
2023-02-19T01:09:26.985Z,2.34
2023-02-19T01:09:49.916Z,2.34
2023-02-19T01:10:12.913Z,2.35
2023-02-19T01:10:38.165Z,2.35
2023-02-19T01:11:01.789Z,2.35
2023-02-19T01:11:27.474Z,2.35
2023-02-19T01:11:50.426Z,2.35
2023-02-19T01:12:13.994Z,2.34
2023-02-19T01:12:37.623Z,2.33
2023-02-19T01:13:01.247Z,2.33
2023-02-19T01:13:24.465Z,2.32
2023-02-19T01:13:47.582Z,2.32
2023-02-19T01:14:10.993Z,2.31
2023-02-19T01:14:34.011Z,2.31
2023-02-19T01:14:57.943Z,2.30
2023-02-19T01:15:26.308Z,2.30
2023-02-19T01:15:49.899Z,2.29
2023-02-19T01:16:39.303Z,2.28
2023-02-19T01:17:02.508Z,2.27
2023-02-19T01:17:26.235Z,2.27
2023-02-19T01:18:14.556Z,2.27
2023-02-19T01:18:37.841Z,2.27
2023-02-19T01:19:00.947Z,2.27
2023-02-19T01:19:24.396Z,2.27
2023-02-19T01:19:47.683Z,2.28
2023-02-19T01:20:10.694Z,2.29
2023-02-19T01:20:33.812Z,2.30
2023-02-19T01:20:57.037Z,2.32
2023-02-19T01:21:24.542Z,2.32
2023-02-19T01:21:48.572Z,2.33
2023-02-19T01:22:12.911Z,2.34
2023-02-19T01:22:36.031Z,2.35
2023-02-19T01:22:59.764Z,2.36
2023-02-19T01:23:23.072Z,2.35
2023-02-19T01:23:46.491Z,2.36
2023-02-19T01:24:09.913Z,2.36
2023-02-19T01:24:32.977Z,2.35
2023-02-19T01:24:56.069Z,2.35
2023-02-19T01:25:19.153Z,2.34
2023-02-19T01:25:42.629Z,2.34
2023-02-19T01:26:06.454Z,2.34
2023-02-19T01:26:30.350Z,2.32
2023-02-19T01:26:56.634Z,2.33
2023-02-19T01:27:20.046Z,2.32
2023-02-19T01:27:46.025Z,2.31
2023-02-19T01:28:09.241Z,2.30
2023-02-19T01:28:34.705Z,2.30
2023-02-19T01:28:58.544Z,2.30
2023-02-19T01:29:21.559Z,2.29
2023-02-19T01:29:44.759Z,2.28
2023-02-19T01:30:08.215Z,2.28
2023-02-19T01:30:31.515Z,2.27
2023-02-19T01:30:55.028Z,2.26
2023-02-19T01:31:19.312Z,2.26
2023-02-19T01:31:42.638Z,2.26
2023-02-19T01:32:31.876Z,2.25
2023-02-19T01:32:56.472Z,2.25
2023-02-19T01:33:19.783Z,2.24
2023-02-19T01:33:50.334Z,2.25
2023-02-19T01:34:13.540Z,2.26
2023-02-19T01:34:37.146Z,2.27
2023-02-19T01:35:00.582Z,2.27
2023-02-19T01:35:24.106Z,2.28
2023-02-19T01:35:47.432Z,2.29
2023-02-19T01:36:11.155Z,2.30
2023-02-19T01:36:34.384Z,2.30
2023-02-19T01:36:57.792Z,2.31
2023-02-19T01:37:20.911Z,2.32
2023-02-19T01:37:44.363Z,2.32
2023-02-19T01:38:10.509Z,2.33
2023-02-19T01:38:34.552Z,2.32
2023-02-19T01:38:59.813Z,2.32
2023-02-19T01:39:22.918Z,2.32
2023-02-19T01:39:47.361Z,2.31
2023-02-19T01:40:10.993Z,2.31
2023-02-19T01:40:34.715Z,2.31
2023-02-19T01:40:58.443Z,2.30
2023-02-19T01:41:22.794Z,2.29
2023-02-19T01:41:45.930Z,2.28
2023-02-19T01:42:13.320Z,2.28
2023-02-19T01:42:36.424Z,2.28
2023-02-19T01:42:59.535Z,2.27
2023-02-19T01:43:23.065Z,2.26
2023-02-19T01:44:00.112Z,2.26
2023-02-19T01:44:23.609Z,2.25
2023-02-19T01:44:46.724Z,2.24
2023-02-19T01:45:21.607Z,2.25
2023-02-19T01:45:44.821Z,2.23
2023-02-19T01:46:08.742Z,2.23
2023-02-19T01:46:32.956Z,2.23
2023-02-19T01:46:59.164Z,2.22
2023-02-19T01:47:22.370Z,2.23
2023-02-19T01:47:46.011Z,2.23
2023-02-19T01:48:23.951Z,2.23
2023-02-19T01:48:49.830Z,2.24
2023-02-19T01:49:17.866Z,2.25
2023-02-19T01:49:49.023Z,2.26
2023-02-19T01:50:12.580Z,2.27
2023-02-19T01:50:38.751Z,2.28
2023-02-19T01:51:05.136Z,2.29
2023-02-19T01:51:28.354Z,2.29
2023-02-19T01:51:53.411Z,2.30
2023-02-19T01:52:25.952Z,2.30
2023-02-19T01:52:48.951Z,2.31
2023-02-19T01:53:12.671Z,2.31
2023-02-19T01:53:39.679Z,2.30
2023-02-19T01:54:04.495Z,2.29
2023-02-19T01:54:28.771Z,2.29
2023-02-19T01:54:51.777Z,2.27
2023-02-19T01:55:15.203Z,2.27
2023-02-19T01:55:38.210Z,2.26
2023-02-19T01:56:01.631Z,2.26
2023-02-19T01:56:24.756Z,2.26
2023-02-19T01:56:47.860Z,2.24
2023-02-19T01:57:12.435Z,2.24
2023-02-19T01:57:37.140Z,2.23
2023-02-19T01:58:00.272Z,2.23
2023-02-19T01:58:24.408Z,2.22
2023-02-19T01:58:47.774Z,2.22
2023-02-19T01:59:14.397Z,2.21
2023-02-19T01:59:40.095Z,2.21
2023-02-19T02:00:06.002Z,2.20
2023-02-19T02:00:36.608Z,2.19
2023-02-19T02:01:00.198Z,2.18
2023-02-19T02:01:23.298Z,2.18
2023-02-19T02:01:46.323Z,2.18
2023-02-19T02:02:10.764Z,2.17
2023-02-19T02:02:33.959Z,2.15
2023-02-19T02:02:59.732Z,2.15
2023-02-19T02:03:22.881Z,2.14
2023-02-19T02:03:47.060Z,2.14
2023-02-19T02:04:13.284Z,2.13
2023-02-19T02:04:37.094Z,2.13
2023-02-19T02:05:00.929Z,2.14
2023-02-19T02:05:25.682Z,2.14
2023-02-19T02:06:02.496Z,2.14
2023-02-19T02:06:30.312Z,2.15
2023-02-19T02:06:54.355Z,2.17
2023-02-19T02:07:37.098Z,2.18
2023-02-19T02:08:19.237Z,2.19
2023-02-19T02:09:00.901Z,2.20
2023-02-19T02:09:44.312Z,2.21
2023-02-19T02:10:20.644Z,2.21
2023-02-19T02:10:48.969Z,2.20
2023-02-19T02:11:16.749Z,2.19
2023-02-19T02:11:41.024Z,2.18
2023-02-19T02:12:04.267Z,2.16
2023-02-19T02:12:29.707Z,2.16
2023-02-19T02:12:53.541Z,2.14
2023-02-19T02:13:16.652Z,2.13
2023-02-19T02:13:40.994Z,2.12
2023-02-19T02:14:04.727Z,2.11
2023-02-19T02:14:29.060Z,2.10
2023-02-19T02:14:52.593Z,2.09
2023-02-19T02:15:16.625Z,2.08
2023-02-19T02:15:54.093Z,2.07
2023-02-19T02:16:36.608Z,2.06
2023-02-19T02:17:17.512Z,2.04
2023-02-19T02:17:49.623Z,2.03
2023-02-19T02:18:35.950Z,2.02
2023-02-19T02:18:59.068Z,2.01
2023-02-19T02:19:31.347Z,2.00
2023-02-19T02:19:54.400Z,2.00
2023-02-19T02:20:18.034Z,2.00
2023-02-19T02:20:46.966Z,2.01
2023-02-19T02:21:26.182Z,2.02
2023-02-19T02:21:52.526Z,2.03
2023-02-19T02:22:24.128Z,2.04
2023-02-19T02:22:54.401Z,2.05
2023-02-19T02:23:41.880Z,2.06
2023-02-19T02:24:13.663Z,2.07
2023-02-19T02:24:44.039Z,2.09
2023-02-19T02:25:26.384Z,2.09
2023-02-19T02:25:49.804Z,2.09
2023-02-19T02:26:30.993Z,2.09
2023-02-19T02:26:57.818Z,2.08
2023-02-19T02:27:33.219Z,2.08
2023-02-19T02:28:08.498Z,2.07
2023-02-19T02:29:04.417Z,2.06
2023-02-19T02:30:02.066Z,2.04
2023-02-19T02:30:39.602Z,2.04
2023-02-19T02:31:03.475Z,2.03
2023-02-19T02:31:31.100Z,2.02
2023-02-19T02:31:54.941Z,2.01
2023-02-19T02:32:27.550Z,2.02
2023-02-19T02:33:05.495Z,2.01
2023-02-19T02:33:28.549Z,2.01
2023-02-19T02:34:15.243Z,2.00
2023-02-19T02:34:42.143Z,2.00
2023-02-19T02:35:07.851Z,2.00
2023-02-19T02:35:38.717Z,1.99
2023-02-19T02:36:07.360Z,1.99
2023-02-19T02:36:34.951Z,1.98
2023-02-19T02:36:58.066Z,1.98
2023-02-19T02:37:22.681Z,1.97
2023-02-19T02:37:46.341Z,1.97
2023-02-19T02:38:10.584Z,1.98
2023-02-19T02:38:40.341Z,1.98
2023-02-19T02:39:05.335Z,1.99
2023-02-19T02:39:30.666Z,2.00
2023-02-19T02:39:54.113Z,2.02
2023-02-19T02:40:19.971Z,2.02
2023-02-19T02:40:44.518Z,2.04
2023-02-19T02:41:08.271Z,2.06
2023-02-19T02:41:32.374Z,2.07
2023-02-19T02:42:17.688Z,2.08
2023-02-19T02:42:44.573Z,2.10
2023-02-19T02:43:08.451Z,2.11
2023-02-19T02:43:32.758Z,2.12
2023-02-19T02:43:55.756Z,2.13
2023-02-19T02:44:21.356Z,2.13
2023-02-19T02:45:08.472Z,2.13
2023-02-19T02:45:36.185Z,2.13
2023-02-19T02:46:34.697Z,2.12
2023-02-19T02:46:58.008Z,2.12
2023-02-19T02:47:39.836Z,2.11
2023-02-19T02:48:05.103Z,2.10
2023-02-19T02:48:47.042Z,2.10
2023-02-19T02:49:17.101Z,2.09
2023-02-19T02:50:01.184Z,2.08
2023-02-19T02:50:25.234Z,2.07
2023-02-19T02:50:54.889Z,2.07
2023-02-19T02:51:19.114Z,2.07
2023-02-19T02:51:47.547Z,2.06
2023-02-19T02:52:36.844Z,2.05
2023-02-19T02:53:21.012Z,2.05
2023-02-19T02:54:06.236Z,2.06
2023-02-19T02:54:48.984Z,2.07
2023-02-19T02:55:12.409Z,2.09
2023-02-19T02:55:36.354Z,2.09
2023-02-19T02:56:00.586Z,2.10
2023-02-19T02:56:24.413Z,2.12
2023-02-19T02:56:47.932Z,2.12
2023-02-19T02:57:15.052Z,2.13
2023-02-19T02:57:51.030Z,2.15
2023-02-19T02:58:14.144Z,2.16
2023-02-19T02:58:37.088Z,2.17
2023-02-19T02:59:04.000Z,2.17
2023-02-19T02:59:29.315Z,2.16
2023-02-19T02:59:52.333Z,2.16
2023-02-19T03:00:17.488Z,2.16
2023-02-19T03:00:59.635Z,2.15
2023-02-19T03:02:04.021Z,2.14
2023-02-19T03:02:28.784Z,2.13
2023-02-19T03:02:52.226Z,2.12
2023-02-19T03:03:15.443Z,2.12
2023-02-19T03:03:38.660Z,2.12
2023-02-19T03:04:03.187Z,2.11
2023-02-19T03:04:33.184Z,2.11
2023-02-19T03:05:35.072Z,2.11
2023-02-19T03:06:03.081Z,2.10
2023-02-19T03:06:26.701Z,2.09
2023-02-19T03:06:50.736Z,2.08
2023-02-19T03:07:13.948Z,2.08
2023-02-19T03:07:42.182Z,2.08
2023-02-19T03:08:24.114Z,2.07
2023-02-19T03:09:23.733Z,2.08
2023-02-19T03:09:49.577Z,2.09
2023-02-19T03:10:15.692Z,2.10
2023-02-19T03:10:42.195Z,2.11
2023-02-19T03:11:29.430Z,2.12
2023-02-19T03:12:12.079Z,2.13
2023-02-19T03:12:54.725Z,2.15
2023-02-19T03:13:41.010Z,2.16
2023-02-19T03:14:33.492Z,2.16
2023-02-19T03:15:16.483Z,2.15
2023-02-19T03:16:14.220Z,2.14
2023-02-19T03:16:56.219Z,2.12
2023-02-19T03:17:41.606Z,2.11
2023-02-19T03:18:24.199Z,2.09
2023-02-19T03:19:07.828Z,2.08
2023-02-19T03:19:31.350Z,2.07
2023-02-19T03:19:56.405Z,2.07
2023-02-19T03:20:20.234Z,2.06
2023-02-19T03:20:45.703Z,2.05
2023-02-19T03:21:09.597Z,2.05
2023-02-19T03:21:33.882Z,2.04
2023-02-19T03:21:59.344Z,2.03
2023-02-19T03:22:30.036Z,2.03
2023-02-19T03:22:56.360Z,2.03
2023-02-19T03:23:20.956Z,2.03
2023-02-19T03:24:03.497Z,2.04
2023-02-19T03:24:47.987Z,2.05
2023-02-19T03:25:33.904Z,2.07
2023-02-19T03:26:06.127Z,2.09
2023-02-19T03:26:43.559Z,2.11
2023-02-19T03:27:06.785Z,2.12
2023-02-19T03:27:33.977Z,2.12
2023-02-19T03:27:57.809Z,2.12
2023-02-19T03:28:41.378Z,2.12
2023-02-19T03:29:26.353Z,2.12
2023-02-19T03:29:57.175Z,2.11
2023-02-19T03:30:21.677Z,2.10
2023-02-19T03:30:46.461Z,2.10
2023-02-19T03:31:10.755Z,2.10
2023-02-19T03:31:34.492Z,2.09
2023-02-19T03:31:58.707Z,2.08
2023-02-19T03:32:25.971Z,2.08
2023-02-19T03:32:56.060Z,2.07
2023-02-19T03:33:20.184Z,2.06
2023-02-19T03:33:43.701Z,2.05
2023-02-19T03:34:08.838Z,2.05
2023-02-19T03:34:35.707Z,2.04
2023-02-19T03:35:10.025Z,2.04
2023-02-19T03:35:35.292Z,2.03
2023-02-19T03:36:00.348Z,2.02
2023-02-19T03:36:27.198Z,2.01
2023-02-19T03:36:54.044Z,2.00
2023-02-19T03:37:35.054Z,2.00
2023-02-19T03:38:18.858Z,2.00
2023-02-19T03:38:49.611Z,2.00
2023-02-19T03:39:44.542Z,2.02
2023-02-19T03:40:09.639Z,2.03
2023-02-19T03:40:34.629Z,2.04
2023-02-19T03:41:23.628Z,2.05
2023-02-19T03:41:52.982Z,2.07
2023-02-19T03:42:35.736Z,2.07
2023-02-19T03:43:01.318Z,2.07
2023-02-19T03:43:33.946Z,2.07
2023-02-19T03:44:08.906Z,2.06
2023-02-19T03:44:34.983Z,2.06
2023-02-19T03:44:58.723Z,2.04
2023-02-19T03:45:21.851Z,2.03
2023-02-19T03:46:11.553Z,2.02
2023-02-19T03:46:53.058Z,2.01
2023-02-19T03:47:24.989Z,1.99
2023-02-19T03:47:58.418Z,1.98
2023-02-19T03:48:23.978Z,1.96
2023-02-19T03:48:59.893Z,1.95
2023-02-19T03:49:42.736Z,1.94
2023-02-19T03:50:16.532Z,1.93
2023-02-19T03:50:43.581Z,1.92
2023-02-19T03:51:09.928Z,1.91
2023-02-19T03:51:39.340Z,1.91
2023-02-19T03:52:09.911Z,1.91
2023-02-19T03:52:32.994Z,1.90
2023-02-19T03:53:06.699Z,1.90
2023-02-19T03:53:31.436Z,1.92
2023-02-19T03:54:13.458Z,1.92
2023-02-19T03:54:45.259Z,1.94
2023-02-19T03:55:17.479Z,1.94
2023-02-19T03:55:54.296Z,1.96
2023-02-19T03:56:20.196Z,1.98
2023-02-19T03:57:16.624Z,1.99
2023-02-19T03:57:45.672Z,1.99
2023-02-19T03:58:12.361Z,1.99
2023-02-19T03:58:39.180Z,1.98
2023-02-19T03:59:09.742Z,1.98
2023-02-19T03:59:35.411Z,1.97
2023-02-19T04:00:21.639Z,1.96
2023-02-19T04:00:55.495Z,1.95
2023-02-19T04:01:30.475Z,1.93
2023-02-19T04:01:54.748Z,1.92
2023-02-19T04:02:43.795Z,1.91
2023-02-19T04:03:07.225Z,1.90
2023-02-19T04:03:43.553Z,1.89
2023-02-19T04:04:27.261Z,1.88
2023-02-19T04:04:54.574Z,1.87
2023-02-19T04:05:19.268Z,1.86
2023-02-19T04:05:44.724Z,1.86
2023-02-19T04:06:13.946Z,1.86
2023-02-19T04:06:37.099Z,1.86
2023-02-19T04:07:00.987Z,1.87
2023-02-19T04:07:25.366Z,1.87
2023-02-19T04:07:49.840Z,1.88
2023-02-19T04:08:15.786Z,1.89
2023-02-19T04:08:42.685Z,1.90
2023-02-19T04:09:06.617Z,1.91
2023-02-19T04:09:32.086Z,1.92
2023-02-19T04:10:00.890Z,1.94
2023-02-19T04:10:32.327Z,1.95
2023-02-19T04:10:55.849Z,1.95
2023-02-19T04:11:21.519Z,1.95
2023-02-19T04:11:45.165Z,1.95
2023-02-19T04:12:08.390Z,1.94
2023-02-19T04:12:32.097Z,1.94
2023-02-19T04:13:06.766Z,1.93
2023-02-19T04:13:30.283Z,1.92
2023-02-19T04:14:00.055Z,1.91
2023-02-19T04:14:24.080Z,1.91
2023-02-19T04:15:12.462Z,1.90
2023-02-19T04:15:35.774Z,1.89
2023-02-19T04:16:01.397Z,1.88
2023-02-19T04:16:28.790Z,1.87
2023-02-19T04:17:07.011Z,1.86
2023-02-19T04:17:49.552Z,1.85
2023-02-19T04:18:16.445Z,1.84
2023-02-19T04:18:40.229Z,1.84
2023-02-19T04:19:04.624Z,1.83
2023-02-19T04:19:27.936Z,1.83
2023-02-19T04:19:51.472Z,1.83
2023-02-19T04:20:15.296Z,1.81
2023-02-19T04:20:39.530Z,1.82
2023-02-19T04:21:02.746Z,1.82
2023-02-19T04:21:25.860Z,1.82
2023-02-19T04:21:49.083Z,1.83
2023-02-19T04:22:13.930Z,1.83
2023-02-19T04:22:38.477Z,1.84
2023-02-19T04:23:01.902Z,1.85
2023-02-19T04:23:25.135Z,1.86
2023-02-19T04:23:48.637Z,1.86
2023-02-19T04:24:13.078Z,1.88
2023-02-19T04:24:38.970Z,1.88
2023-02-19T04:25:01.973Z,1.89
2023-02-19T04:25:25.343Z,1.89
2023-02-19T04:25:49.838Z,1.90
2023-02-19T04:26:13.455Z,1.90
2023-02-19T04:26:36.470Z,1.90
2023-02-19T04:26:59.599Z,1.90
2023-02-19T04:27:29.025Z,1.90
2023-02-19T04:27:52.148Z,1.89
2023-02-19T04:28:16.949Z,1.89
2023-02-19T04:28:40.222Z,1.88
2023-02-19T04:29:03.943Z,1.88
2023-02-19T04:29:28.087Z,1.86
2023-02-19T04:29:51.722Z,1.86
2023-02-19T04:30:14.689Z,1.85
2023-02-19T04:30:38.316Z,1.85
2023-02-19T04:31:01.869Z,1.83
2023-02-19T04:31:25.257Z,1.83
2023-02-19T04:31:48.431Z,1.82
2023-02-19T04:32:11.682Z,1.81
2023-02-19T04:32:34.838Z,1.81
2023-02-19T04:32:59.707Z,1.81
2023-02-19T04:33:23.028Z,1.80
2023-02-19T04:33:46.838Z,1.79
2023-02-19T04:34:09.792Z,1.78
2023-02-19T04:34:33.388Z,1.78
2023-02-19T04:34:56.486Z,1.77
2023-02-19T04:35:19.702Z,1.77
2023-02-19T04:35:43.132Z,1.76
2023-02-19T04:36:07.064Z,1.75
2023-02-19T04:36:30.992Z,1.74
2023-02-19T04:36:54.201Z,1.74
2023-02-19T04:37:17.519Z,1.74
2023-02-19T04:37:40.632Z,1.75
2023-02-19T04:38:03.746Z,1.75
2023-02-19T04:38:26.673Z,1.76
2023-02-19T04:38:50.217Z,1.77
2023-02-19T04:39:13.394Z,1.79
2023-02-19T04:39:36.610Z,1.79
2023-02-19T04:40:00.072Z,1.80
2023-02-19T04:40:23.152Z,1.80
2023-02-19T04:40:47.299Z,1.81
2023-02-19T04:41:11.409Z,1.82
2023-02-19T04:41:35.252Z,1.83
2023-02-19T04:41:58.365Z,1.84
2023-02-19T04:42:21.495Z,1.84
2023-02-19T04:42:45.104Z,1.85
2023-02-19T04:43:08.221Z,1.85
2023-02-19T04:43:31.534Z,1.85
2023-02-19T04:43:54.769Z,1.85
2023-02-19T04:44:18.273Z,1.86
2023-02-19T04:44:41.407Z,1.85
2023-02-19T04:45:04.809Z,1.84
2023-02-19T04:45:28.848Z,1.84
2023-02-19T04:45:51.981Z,1.83
2023-02-19T04:46:15.411Z,1.83
2023-02-19T04:47:06.599Z,1.82
2023-02-19T04:47:31.578Z,1.82
2023-02-19T04:47:54.488Z,1.82
2023-02-19T04:48:43.368Z,1.81
2023-02-19T04:49:06.483Z,1.81
2023-02-19T04:49:29.701Z,1.81
2023-02-19T04:49:56.801Z,1.80
2023-02-19T04:50:19.786Z,1.80
2023-02-19T04:50:43.338Z,1.79
2023-02-19T04:51:07.557Z,1.79
2023-02-19T04:51:34.707Z,1.79
2023-02-19T04:51:57.795Z,1.80
2023-02-19T04:52:21.431Z,1.81
2023-02-19T04:52:44.635Z,1.81
2023-02-19T04:53:08.057Z,1.82
2023-02-19T04:53:31.534Z,1.83
2023-02-19T04:53:56.532Z,1.84
2023-02-19T04:54:19.649Z,1.85
2023-02-19T04:54:42.661Z,1.86
2023-02-19T04:55:08.030Z,1.87
2023-02-19T04:55:31.038Z,1.88
2023-02-19T04:55:54.568Z,1.89
2023-02-19T04:56:18.801Z,1.90
2023-02-19T04:56:42.297Z,1.90
2023-02-19T04:57:05.547Z,1.90
2023-02-19T04:57:28.959Z,1.90
2023-02-19T04:57:52.293Z,1.90
2023-02-19T04:58:15.903Z,1.90
2023-02-19T04:58:39.168Z,1.90
2023-02-19T04:59:02.649Z,1.90
2023-02-19T04:59:25.962Z,1.90
2023-02-19T04:59:48.971Z,1.90
2023-02-19T05:00:12.206Z,1.90
2023-02-19T05:00:36.326Z,1.90
2023-02-19T05:01:03.546Z,1.90
2023-02-19T05:01:26.848Z,1.90
2023-02-19T05:01:49.975Z,1.89
2023-02-19T05:02:13.598Z,1.89
2023-02-19T05:02:36.907Z,1.89
2023-02-19T05:03:01.161Z,1.89
2023-02-19T05:03:24.270Z,1.89
2023-02-19T05:03:47.791Z,1.89
2023-02-19T05:04:11.141Z,1.90
2023-02-19T05:04:34.387Z,1.90
2023-02-19T05:04:57.543Z,1.91
2023-02-19T05:05:20.751Z,1.92
2023-02-19T05:05:47.447Z,1.94
2023-02-19T05:06:40.634Z,1.95
2023-02-19T05:07:03.745Z,1.98
2023-02-19T05:07:27.222Z,2.00
2023-02-19T05:07:50.483Z,2.01
2023-02-19T05:08:14.820Z,2.02
2023-02-19T05:08:38.755Z,2.04
2023-02-19T05:09:02.074Z,2.04
2023-02-19T05:09:25.495Z,2.05
2023-02-19T05:09:48.613Z,2.06
2023-02-19T05:10:11.622Z,2.06
2023-02-19T05:10:35.066Z,2.06
2023-02-19T05:10:59.218Z,2.06
2023-02-19T05:11:25.584Z,2.06
2023-02-19T05:11:55.121Z,2.06
2023-02-19T05:12:19.464Z,2.06
2023-02-19T05:12:42.492Z,2.06
2023-02-19T05:13:05.898Z,2.06
2023-02-19T05:13:29.136Z,2.06
2023-02-19T05:13:52.227Z,2.05
2023-02-19T05:14:15.442Z,2.05
2023-02-19T05:14:39.886Z,2.06
2023-02-19T05:15:02.881Z,2.05
2023-02-19T05:15:26.217Z,2.05
2023-02-19T05:15:59.420Z,2.05
2023-02-19T05:16:22.478Z,2.05
2023-02-19T05:16:45.684Z,2.04
2023-02-19T05:17:12.073Z,2.05
2023-02-19T05:17:38.866Z,2.06
2023-02-19T05:18:01.985Z,2.07
2023-02-19T05:18:25.226Z,2.08
2023-02-19T05:19:36.279Z,2.18
2023-02-19T05:20:02.407Z,2.14
2023-02-19T05:20:25.881Z,2.15
2023-02-19T05:20:49.709Z,2.16
2023-02-19T05:21:13.463Z,2.17
2023-02-19T05:21:36.557Z,2.18
2023-02-19T05:21:59.873Z,2.18
2023-02-19T05:22:23.168Z,2.19
2023-02-19T05:22:46.205Z,2.20
2023-02-19T05:23:11.873Z,2.20
2023-02-19T05:23:34.986Z,2.20
2023-02-19T05:23:58.085Z,2.20
2023-02-19T05:24:21.595Z,2.21
2023-02-19T05:24:44.739Z,2.21
2023-02-19T05:25:07.954Z,2.22
2023-02-19T05:25:57.455Z,2.23
2023-02-19T05:26:22.206Z,2.23
2023-02-19T05:26:45.565Z,2.25
2023-02-19T05:27:09.148Z,2.26
2023-02-19T05:28:17.181Z,2.28
2023-02-19T05:28:40.383Z,2.33
2023-02-19T05:29:32.332Z,2.36
2023-02-19T05:29:55.484Z,2.39
2023-02-19T05:30:19.725Z,2.42
2023-02-19T05:30:43.621Z,2.44
2023-02-19T05:31:07.676Z,2.45
2023-02-19T05:31:33.878Z,2.46
2023-02-19T05:31:57.172Z,2.47
2023-02-19T05:32:20.986Z,2.48
2023-02-19T05:32:44.057Z,2.48
2023-02-19T05:33:07.012Z,2.48
2023-02-19T05:33:30.223Z,2.49
2023-02-19T05:33:55.790Z,2.49
2023-02-19T05:34:19.346Z,2.49
2023-02-19T05:34:42.428Z,2.49
2023-02-19T05:35:05.852Z,2.49
2023-02-19T05:35:29.884Z,2.49
2023-02-19T05:35:53.919Z,2.49
2023-02-19T05:36:17.443Z,2.49
2023-02-19T05:36:40.536Z,2.50
2023-02-19T05:37:03.877Z,2.50
2023-02-19T05:37:27.705Z,2.50
2023-02-19T05:37:50.715Z,2.50
2023-02-19T05:38:14.520Z,2.50
2023-02-19T05:38:37.532Z,2.50
2023-02-19T05:39:01.386Z,2.50
2023-02-19T05:39:26.550Z,2.51
2023-02-19T05:39:50.078Z,2.51
2023-02-19T05:40:13.077Z,2.52
2023-02-19T05:40:56.041Z,2.53
2023-02-19T05:41:32.858Z,2.55
2023-02-19T05:41:57.008Z,2.57
2023-02-19T05:42:24.341Z,2.59
2023-02-19T05:42:48.053Z,2.61
2023-02-19T05:43:13.090Z,2.63
2023-02-19T05:43:38.652Z,2.65
2023-02-19T05:44:01.570Z,2.67
2023-02-19T05:44:24.883Z,2.68
2023-02-19T05:44:48.310Z,2.69
2023-02-19T05:45:11.520Z,2.71
2023-02-19T05:45:34.738Z,2.72
2023-02-19T05:46:00.624Z,2.73
2023-02-19T05:46:24.744Z,2.74
2023-02-19T05:46:48.066Z,2.74
2023-02-19T05:47:11.284Z,2.74
2023-02-19T05:47:34.441Z,2.74
2023-02-19T05:47:57.514Z,2.74
2023-02-19T05:48:20.542Z,2.75
2023-02-19T05:48:44.050Z,2.74
2023-02-19T05:49:08.291Z,2.74
2023-02-19T05:49:31.611Z,2.75
2023-02-19T05:49:55.126Z,2.75
2023-02-19T05:50:18.753Z,2.74
2023-02-19T05:50:41.763Z,2.75
2023-02-19T05:51:11.767Z,2.75
2023-02-19T05:51:35.259Z,2.75
2023-02-19T05:51:58.620Z,2.76
2023-02-19T05:52:22.305Z,2.76
2023-02-19T05:52:45.414Z,2.77
2023-02-19T05:53:08.425Z,2.79
2023-02-19T05:53:31.743Z,2.80
2023-02-19T05:53:54.966Z,2.82
2023-02-19T05:54:18.791Z,2.84
2023-02-19T05:54:41.909Z,2.86
2023-02-19T05:55:05.121Z,2.88
2023-02-19T05:56:19.478Z,2.90
2023-02-19T05:56:42.905Z,2.96
2023-02-19T05:57:06.611Z,2.99
2023-02-19T05:57:29.754Z,3.00
2023-02-19T05:57:52.978Z,3.01
2023-02-19T05:58:16.085Z,3.02
2023-02-19T05:58:39.181Z,3.03
2023-02-19T05:59:04.069Z,3.04
2023-02-19T05:59:27.670Z,3.05
2023-02-19T05:59:51.284Z,3.06
2023-02-19T06:00:16.655Z,3.06